createdAt,value
2022-08-24T00:01:22.399Z,74.10
2022-08-24T00:03:49.751Z,73.16
2022-08-24T00:06:23.580Z,72.89
2022-08-24T00:08:52.851Z,73.08
2022-08-24T00:11:20.484Z,73.66
2022-08-24T00:13:47.423Z,75.47
2022-08-24T00:16:15.964Z,74.93
2022-08-24T00:18:44.256Z,74.72
2022-08-24T00:21:10.991Z,74.27
2022-08-24T00:23:37.634Z,72.68
2022-08-24T00:26:05.353Z,74.80
2022-08-24T00:28:32.126Z,74.33
2022-08-24T00:30:59.080Z,73.99
2022-08-24T00:33:26.522Z,72.33
2022-08-24T00:35:53.201Z,73.26
2022-08-24T00:38:20.353Z,73.71
2022-08-24T00:40:49.214Z,73.03
2022-08-24T00:43:20.671Z,71.41
2022-08-24T00:46:21.979Z,71.90
2022-08-24T00:48:55.213Z,71.39
2022-08-24T00:51:33.445Z,71.73
2022-08-24T00:54:08.799Z,73.20
2022-08-24T00:56:49.417Z,73.10
2022-08-24T00:59:22.444Z,73.00
2022-08-24T01:01:51.387Z,72.48
2022-08-24T01:04:29.881Z,72.53
2022-08-24T01:06:57.366Z,73.76
2022-08-24T01:09:24.152Z,72.73
2022-08-24T01:11:51.013Z,76.71
2022-08-24T01:14:20.479Z,75.03
2022-08-24T01:17:05.862Z,76.64
2022-08-24T01:19:39.543Z,77.58
2022-08-24T01:22:21.014Z,76.66
2022-08-24T01:24:47.870Z,75.16
2022-08-24T01:27:15.595Z,74.45
2022-08-24T01:29:45.737Z,74.09
2022-08-24T01:32:14.488Z,74.29
2022-08-24T01:34:41.255Z,74.43
2022-08-24T01:37:10.867Z,74.84
2022-08-24T01:39:43.855Z,75.88
2022-08-24T01:42:11.541Z,76.44
2022-08-24T01:44:40.203Z,76.03
2022-08-24T01:47:08.717Z,76.93
2022-08-24T01:49:40.079Z,77.03
2022-08-24T01:52:08.202Z,75.97
2022-08-24T01:54:35.376Z,75.22
2022-08-24T01:57:02.280Z,75.42
2022-08-24T01:59:29.654Z,75.48
2022-08-24T02:02:19.887Z,76.47
2022-08-24T02:04:46.581Z,75.58
2022-08-24T02:07:14.080Z,75.02
2022-08-24T02:09:40.882Z,74.87
2022-08-24T02:12:08.200Z,74.92
2022-08-24T02:14:36.572Z,74.30
2022-08-24T02:17:05.829Z,74.38
2022-08-24T02:19:32.678Z,74.71
2022-08-24T02:22:00.529Z,79.42
2022-08-24T02:24:30.660Z,79.31
2022-08-24T02:26:58.235Z,76.61
2022-08-24T02:29:25.396Z,75.55
2022-08-24T02:31:52.296Z,75.07
2022-08-24T02:34:19.065Z,74.87
2022-08-24T02:36:45.953Z,74.17
2022-08-24T02:39:13.091Z,73.94
2022-08-24T02:41:39.882Z,75.03
2022-08-24T02:44:07.187Z,78.27
2022-08-24T02:46:33.917Z,76.86
2022-08-24T02:49:10.564Z,76.76
2022-08-24T02:51:44.078Z,76.25
2022-08-24T02:54:13.569Z,76.39
2022-08-24T02:56:40.277Z,76.37
2022-08-24T02:59:06.974Z,76.94
2022-08-24T03:01:33.860Z,77.26
2022-08-24T03:04:00.564Z,76.54
2022-08-24T03:06:27.248Z,75.64
2022-08-24T03:08:56.421Z,75.32
2022-08-24T03:11:28.008Z,75.24
2022-08-24T03:13:56.458Z,74.49
2022-08-24T03:16:23.155Z,74.80
2022-08-24T03:18:49.903Z,74.15
2022-08-24T03:21:18.743Z,75.43
2022-08-24T03:23:45.383Z,75.00
2022-08-24T03:26:13.067Z,74.03
2022-08-24T03:28:40.140Z,73.26
2022-08-24T03:31:07.479Z,72.69
2022-08-24T03:33:34.299Z,72.90
2022-08-24T03:36:00.985Z,72.79
2022-08-24T03:38:28.370Z,72.75
2022-08-24T03:40:55.041Z,72.13
2022-08-24T03:43:40.261Z,72.10
2022-08-24T03:46:09.152Z,72.15
2022-08-24T03:48:36.765Z,71.87
2022-08-24T03:51:03.755Z,72.26
2022-08-24T03:53:30.455Z,72.14
2022-08-24T03:55:57.078Z,71.97
2022-08-24T03:58:23.971Z,72.21
2022-08-24T04:00:50.895Z,72.52
2022-08-24T04:03:17.682Z,72.85
2022-08-24T04:05:44.422Z,72.36
2022-08-24T04:08:11.490Z,71.99
2022-08-24T04:10:43.575Z,71.33
2022-08-24T04:13:10.242Z,71.36
2022-08-24T04:15:40.911Z,71.84
2022-08-24T04:18:08.479Z,71.66
2022-08-24T04:20:41.152Z,72.03
2022-08-24T04:23:09.306Z,72.07
2022-08-24T04:25:41.742Z,72.09
2022-08-24T04:28:08.541Z,71.96
2022-08-24T04:30:35.185Z,71.76
2022-08-24T04:33:02.332Z,72.65
2022-08-24T04:35:29.119Z,72.47
2022-08-24T04:37:55.791Z,72.56
2022-08-24T04:40:22.632Z,72.25
2022-08-24T04:42:50.651Z,72.62
2022-08-24T04:45:17.322Z,72.82
2022-08-24T04:47:45.585Z,73.52
2022-08-24T04:50:12.947Z,73.37
2022-08-24T04:52:39.703Z,72.43
2022-08-24T04:55:07.633Z,71.95
2022-08-24T04:57:35.068Z,69.77
2022-08-24T05:00:03.279Z,70.72
2022-08-24T05:02:30.015Z,71.28
2022-08-24T05:04:57.932Z,70.54
2022-08-24T05:07:25.876Z,70.43
2022-08-24T05:09:52.845Z,70.41
2022-08-24T05:12:20.911Z,69.91
2022-08-24T05:14:47.609Z,68.76
2022-08-24T05:17:14.299Z,68.94
2022-08-24T05:19:41.038Z,68.58
2022-08-24T05:22:08.119Z,67.99
2022-08-24T05:24:34.872Z,66.31
2022-08-24T05:27:01.559Z,65.47
2022-08-24T05:29:28.303Z,64.65
2022-08-24T05:31:55.038Z,67.32
2022-08-24T05:34:23.863Z,68.15
2022-08-24T05:36:50.529Z,67.99
2022-08-24T05:39:17.207Z,65.94
2022-08-24T05:41:45.341Z,68.36
2022-08-24T05:44:14.182Z,66.29
2022-08-24T05:46:41.250Z,63.96
2022-08-24T05:49:08.306Z,64.33
2022-08-24T05:51:35.698Z,63.81
2022-08-24T05:54:05.037Z,62.94
2022-08-24T05:56:32.255Z,65.96
2022-08-24T05:58:59.352Z,66.58
2022-08-24T06:01:27.266Z,66.42
2022-08-24T06:03:56.462Z,63.75
2022-08-24T06:06:24.320Z,63.38
2022-08-24T06:08:53.529Z,63.41
2022-08-24T06:11:24.751Z,65.47
2022-08-24T06:14:07.368Z,65.87
2022-08-24T06:16:41.318Z,62.46
2022-08-24T06:19:09.921Z,61.92
2022-08-24T06:21:37.988Z,61.18
2022-08-24T06:24:06.569Z,65.40
2022-08-24T06:26:52.561Z,64.93
2022-08-24T06:29:20.320Z,62.43
2022-08-24T06:31:54.218Z,60.27
2022-08-24T06:34:23.313Z,62.41
2022-08-24T06:36:50.463Z,62.20
2022-08-24T06:39:17.261Z,62.28
2022-08-24T06:41:44.133Z,61.34
2022-08-24T06:44:11.121Z,62.12
2022-08-24T06:46:37.943Z,60.71
2022-08-24T06:49:05.532Z,59.76
2022-08-24T06:51:32.627Z,61.60
2022-08-24T06:53:59.529Z,59.96
2022-08-24T06:56:26.503Z,60.04
2022-08-24T06:58:53.264Z,59.61
2022-08-24T07:01:27.559Z,59.98
2022-08-24T07:03:54.880Z,59.67
2022-08-24T07:06:23.596Z,59.10
2022-08-24T07:08:51.135Z,59.52
2022-08-24T07:11:19.095Z,60.25
2022-08-24T07:13:47.526Z,58.74
2022-08-24T07:16:22.172Z,61.12
2022-08-24T07:18:50.229Z,61.90
2022-08-24T07:21:19.737Z,60.76
2022-08-24T07:23:48.319Z,59.86
2022-08-24T07:26:21.472Z,58.66
2022-08-24T07:29:01.403Z,59.13
2022-08-24T07:31:32.025Z,60.14
2022-08-24T07:34:01.450Z,59.41
2022-08-24T07:36:28.545Z,61.33
2022-08-24T07:38:56.218Z,60.30
2022-08-24T07:44:13.044Z,58.64
2022-08-24T07:46:41.772Z,56.69
2022-08-24T07:49:31.600Z,57.10
2022-08-24T07:51:56.109Z,57.13
2022-08-24T07:54:22.917Z,56.20
2022-08-24T07:56:50.338Z,56.84
2022-08-24T07:59:18.181Z,58.36
2022-08-24T08:01:45.067Z,58.00
2022-08-24T08:04:12.148Z,60.08
2022-08-24T08:06:38.879Z,58.15
2022-08-24T08:09:06.434Z,58.87
2022-08-24T08:11:33.210Z,58.45
2022-08-24T08:14:00.079Z,57.80
2022-08-24T08:16:27.866Z,58.58
2022-08-24T08:19:11.068Z,57.89
2022-08-24T08:22:16.950Z,57.67
2022-08-24T08:24:43.951Z,55.94
2022-08-24T08:27:12.550Z,55.37
2022-08-24T08:29:40.682Z,54.06
2022-08-24T08:32:09.546Z,54.64
2022-08-24T08:34:36.818Z,54.83
2022-08-24T08:37:03.961Z,54.71
2022-08-24T08:39:31.394Z,54.51
2022-08-24T08:42:35.454Z,52.84
2022-08-24T08:45:28.454Z,53.53
2022-08-24T08:48:22.947Z,53.85
2022-08-24T08:50:55.959Z,53.99
2022-08-24T08:54:10.725Z,54.89
2022-08-24T08:57:09.976Z,55.18
2022-08-24T09:00:09.086Z,54.73
2022-08-24T09:03:17.433Z,53.96
2022-08-24T09:05:57.548Z,53.79
2022-08-24T09:08:52.105Z,52.99
2022-08-24T09:11:21.826Z,53.83
2022-08-24T09:13:58.909Z,54.39
2022-08-24T09:16:51.158Z,53.88
2022-08-24T09:19:40.016Z,53.99
2022-08-24T09:22:16.960Z,52.92
2022-08-24T09:24:52.856Z,53.11
2022-08-24T09:27:53.340Z,52.14
2022-08-24T09:30:26.008Z,53.44
2022-08-24T09:33:27.175Z,54.32
2022-08-24T09:36:00.122Z,52.49
2022-08-24T09:38:41.695Z,54.00
2022-08-24T09:41:14.147Z,51.14
2022-08-24T09:44:03.512Z,50.84
2022-08-24T09:46:33.231Z,52.44
2022-08-24T09:49:13.629Z,50.05
2022-08-24T09:51:56.569Z,49.47
2022-08-24T09:54:48.186Z,49.12
2022-08-24T09:57:20.017Z,48.09
2022-08-24T10:00:24.267Z,48.92
2022-08-24T10:03:11.938Z,48.20
2022-08-24T10:06:00.022Z,46.75
2022-08-24T10:08:53.447Z,48.34
2022-08-24T10:11:47.764Z,49.22
2022-08-24T10:14:42.407Z,49.56
2022-08-24T10:17:30.827Z,49.37
2022-08-24T10:20:19.246Z,49.23
2022-08-24T10:23:22.621Z,47.99
2022-08-24T10:25:59.994Z,48.95
2022-08-24T10:28:57.422Z,47.86
2022-08-24T10:31:26.720Z,47.66
2022-08-24T10:34:30.282Z,49.88
2022-08-24T10:37:25.545Z,52.62
2022-08-24T10:40:06.388Z,50.10
2022-08-24T10:43:00.585Z,49.15
2022-08-24T10:45:27.218Z,47.57
2022-08-24T10:48:15.438Z,46.30
2022-08-24T10:50:50.862Z,46.16
2022-08-24T10:53:32.977Z,45.96
2022-08-24T10:56:14.871Z,45.83
2022-08-24T10:58:47.443Z,46.98
2022-08-24T11:01:23.354Z,48.53
2022-08-24T11:03:50.404Z,47.22
2022-08-24T11:06:19.352Z,46.67
2022-08-24T11:09:17.236Z,46.03
2022-08-24T11:11:48.846Z,44.72
2022-08-24T11:14:15.475Z,45.26
2022-08-24T11:16:45.259Z,45.63
2022-08-24T11:19:31.343Z,45.01
2022-08-24T11:22:02.091Z,45.19
2022-08-24T11:24:46.032Z,43.05
2022-08-24T11:27:15.377Z,44.35
2022-08-24T11:29:54.837Z,44.51
2022-08-24T11:32:39.747Z,43.58
2022-08-24T11:35:33.634Z,45.13
2022-08-24T11:38:07.358Z,46.87
2022-08-24T11:40:43.607Z,47.58
2022-08-24T11:43:22.610Z,47.81
2022-08-24T11:46:11.571Z,47.05
2022-08-24T11:48:53.376Z,46.06
2022-08-24T11:51:21.281Z,45.43
2022-08-24T11:53:47.890Z,46.10
2022-08-24T11:56:33.047Z,47.91
2022-08-24T11:59:26.302Z,46.26
2022-08-24T12:02:04.272Z,46.54
2022-08-24T12:04:49.235Z,48.65
2022-08-24T12:07:28.121Z,50.64
2022-08-24T12:09:54.702Z,49.73
2022-08-24T12:12:40.931Z,50.03
2022-08-24T12:15:17.074Z,51.55
2022-08-24T12:17:49.422Z,51.33
2022-08-24T12:20:32.121Z,51.37
2022-08-24T12:23:08.753Z,51.31
2022-08-24T12:25:54.207Z,49.73
2022-08-24T12:28:29.123Z,49.15
2022-08-24T12:31:02.095Z,49.27
2022-08-24T12:33:37.546Z,49.03
2022-08-24T12:36:13.574Z,49.29
2022-08-24T12:38:48.050Z,48.61
2022-08-24T12:41:27.551Z,48.70
2022-08-24T12:44:02.362Z,49.57
2022-08-24T12:46:30.392Z,50.96
2022-08-24T12:49:12.466Z,50.78
2022-08-24T12:52:05.136Z,52.00
2022-08-24T12:54:53.319Z,52.57
2022-08-24T12:57:39.619Z,51.89
2022-08-24T13:00:24.543Z,52.02
2022-08-24T13:03:04.461Z,51.03
2022-08-24T13:05:50.799Z,51.34
2022-08-24T13:08:32.083Z,52.06
2022-08-24T13:11:27.539Z,51.04
2022-08-24T13:13:54.102Z,50.71
2022-08-24T13:17:06.698Z,50.33
2022-08-24T13:19:38.668Z,48.83
2022-08-24T13:22:10.860Z,50.21
2022-08-24T13:24:42.076Z,51.10
2022-08-24T13:27:11.581Z,51.23
2022-08-24T13:30:13.546Z,51.15
2022-08-24T13:32:45.489Z,52.55
2022-08-24T13:35:55.315Z,52.59
2022-08-24T13:38:24.582Z,52.03
2022-08-24T13:40:56.931Z,51.40
2022-08-24T13:43:26.555Z,53.16
2022-08-24T13:46:00.108Z,52.44
2022-08-24T13:48:49.429Z,53.63
2022-08-24T13:51:24.983Z,53.04
2022-08-24T13:54:20.389Z,52.85
2022-08-24T13:57:07.124Z,52.80
2022-08-24T13:59:52.173Z,53.44
2022-08-24T14:02:39.269Z,53.18
2022-08-24T14:05:44.036Z,52.24
2022-08-24T14:08:28.537Z,52.60
2022-08-24T14:11:08.977Z,52.55
2022-08-24T14:14:05.341Z,52.83
2022-08-24T14:17:02.630Z,53.05
2022-08-24T14:19:43.155Z,51.77
2022-08-24T14:22:09.770Z,51.26
2022-08-24T14:24:48.581Z,52.74
2022-08-24T14:27:35.005Z,52.23
2022-08-24T14:30:23.518Z,52.55
2022-08-24T14:33:03.465Z,52.04
2022-08-24T14:35:53.706Z,51.77
2022-08-24T14:38:20.313Z,52.19
2022-08-24T14:40:53.015Z,52.76
2022-08-24T14:43:30.843Z,51.89
2022-08-24T14:46:19.278Z,52.04
2022-08-24T14:48:48.781Z,51.23
2022-08-24T14:51:44.195Z,51.72
2022-08-24T14:54:47.840Z,51.44
2022-08-24T14:57:37.888Z,51.66
2022-08-24T15:00:15.924Z,52.08
2022-08-24T15:02:51.644Z,51.76
2022-08-24T15:05:36.175Z,52.10
2022-08-24T15:08:13.273Z,52.46
2022-08-24T15:11:05.676Z,52.29
2022-08-24T15:13:42.095Z,52.50
2022-08-24T15:16:27.303Z,51.68
2022-08-24T15:19:03.045Z,53.23
2022-08-24T15:21:47.764Z,53.41
2022-08-24T15:24:29.238Z,55.47
2022-08-24T15:27:33.605Z,56.02
2022-08-24T15:30:04.651Z,55.51
2022-08-24T15:32:44.554Z,55.20
2022-08-24T15:35:30.453Z,55.96
2022-08-24T15:37:58.094Z,54.25
2022-08-24T15:40:31.707Z,55.57
2022-08-24T15:43:04.082Z,55.94
2022-08-24T15:45:32.950Z,54.82
2022-08-24T15:48:02.378Z,54.07
2022-08-24T15:50:41.637Z,54.88
2022-08-24T15:53:14.167Z,55.23
2022-08-24T15:55:43.723Z,54.82
2022-08-24T15:58:37.646Z,53.75
2022-08-24T16:01:28.736Z,53.78
2022-08-24T16:04:01.956Z,52.73
2022-08-24T16:06:31.853Z,53.76
2022-08-24T16:09:18.711Z,54.33
2022-08-24T16:11:48.172Z,56.19
2022-08-24T16:14:25.924Z,54.21
2022-08-24T16:16:54.472Z,54.35
2022-08-24T16:19:25.911Z,55.29
2022-08-24T16:22:01.135Z,55.08
2022-08-24T16:24:33.148Z,55.92
2022-08-24T16:27:14.727Z,55.59
2022-08-24T16:29:45.197Z,55.55
2022-08-24T16:32:33.649Z,54.67
2022-08-24T16:35:11.699Z,54.23
2022-08-24T16:37:39.367Z,55.18
2022-08-24T16:40:08.522Z,56.10
2022-08-24T16:42:36.544Z,55.30
2022-08-24T16:45:06.110Z,55.17
2022-08-24T16:47:32.793Z,55.11
2022-08-24T16:49:59.408Z,55.15
2022-08-24T16:52:26.061Z,55.41
2022-08-24T16:54:52.682Z,56.13
2022-08-24T16:57:22.965Z,56.06
2022-08-24T16:59:52.152Z,57.50
2022-08-24T17:02:20.232Z,57.34
2022-08-24T17:04:46.967Z,56.45
2022-08-24T17:07:21.531Z,58.11
2022-08-24T17:09:48.865Z,56.78
2022-08-24T17:12:15.643Z,56.84
2022-08-24T17:14:42.831Z,56.68
2022-08-24T17:17:13.645Z,57.04
2022-08-24T17:19:41.075Z,56.63
2022-08-24T17:22:14.294Z,56.91
2022-08-24T17:24:43.083Z,56.29
2022-08-24T17:27:09.767Z,56.76
2022-08-24T17:29:36.627Z,55.85
2022-08-24T17:32:03.918Z,56.38
2022-08-24T17:34:32.190Z,55.62
2022-08-24T17:37:00.112Z,55.50
2022-08-24T17:39:27.472Z,56.04
2022-08-24T17:41:56.368Z,56.53
2022-08-24T17:44:26.723Z,56.00
2022-08-24T17:46:57.686Z,56.70
2022-08-24T17:49:25.095Z,56.18
2022-08-24T17:51:52.146Z,55.91
2022-08-24T17:54:19.391Z,56.09
2022-08-24T17:56:48.746Z,56.73
2022-08-24T17:59:23.575Z,56.83
2022-08-24T18:01:52.679Z,56.64
2022-08-24T18:04:21.858Z,56.72
2022-08-24T18:06:49.596Z,56.85
2022-08-24T18:09:21.527Z,56.64
2022-08-24T18:11:48.158Z,56.43
2022-08-24T18:14:15.089Z,56.18
2022-08-24T18:16:41.835Z,56.42
2022-08-24T18:19:11.865Z,56.59
2022-08-24T18:21:38.693Z,56.80
2022-08-24T18:24:05.771Z,56.54
2022-08-24T18:26:33.769Z,57.70
2022-08-24T18:29:09.042Z,57.04
2022-08-24T18:31:36.012Z,56.80
2022-08-24T18:34:02.707Z,57.19
2022-08-24T18:36:29.420Z,57.08
2022-08-24T18:38:56.044Z,57.82
2022-08-24T18:41:35.396Z,57.77
2022-08-24T18:44:03.704Z,58.33
2022-08-24T18:46:31.289Z,58.27
2022-08-24T18:48:59.041Z,59.39
2022-08-24T18:51:28.137Z,58.43
2022-08-24T18:54:05.372Z,58.79
2022-08-24T18:56:32.133Z,59.44
2022-08-24T18:58:58.875Z,60.19
2022-08-24T19:01:27.335Z,59.61
2022-08-24T19:03:55.565Z,59.89
2022-08-24T19:06:24.374Z,59.89
2022-08-24T19:08:51.249Z,60.24
2022-08-24T19:11:23.348Z,59.74
2022-08-24T19:13:50.000Z,60.12
2022-08-24T19:16:17.036Z,59.69
2022-08-24T19:18:45.922Z,59.60
2022-08-24T19:21:12.632Z,60.33
2022-08-24T19:23:40.638Z,60.76
2022-08-24T19:26:07.392Z,60.58
2022-08-24T19:28:34.138Z,61.53
2022-08-24T19:31:03.740Z,60.75
2022-08-24T19:33:41.252Z,61.19
2022-08-24T19:36:08.072Z,61.24
2022-08-24T19:38:34.776Z,61.27
2022-08-24T19:41:03.580Z,60.75
2022-08-24T19:43:58.543Z,60.45
2022-08-24T19:46:25.297Z,60.57
2022-08-24T19:48:52.064Z,60.21
2022-08-24T19:51:18.854Z,60.96
2022-08-24T19:53:45.752Z,61.57
2022-08-24T19:56:12.441Z,61.57
2022-08-24T19:59:01.296Z,61.05
2022-08-24T20:01:34.459Z,60.92
2022-08-24T20:04:03.333Z,61.38
2022-08-24T20:06:33.349Z,60.70
2022-08-24T20:09:02.843Z,62.05
2022-08-24T20:11:29.705Z,61.54
2022-08-24T20:13:56.728Z,61.70
2022-08-24T20:16:26.633Z,61.80
2022-08-24T20:18:53.475Z,61.51
2022-08-24T20:21:20.368Z,61.74
2022-08-24T20:23:47.024Z,62.04
2022-08-24T20:26:14.161Z,61.77
2022-08-24T20:28:48.121Z,61.74
2022-08-24T20:31:15.731Z,62.41
2022-08-24T20:33:42.469Z,62.18
2022-08-24T20:36:36.414Z,62.39
2022-08-24T20:39:07.071Z,63.50
2022-08-24T20:41:33.822Z,63.02
2022-08-24T20:44:01.607Z,63.45
2022-08-24T20:46:29.119Z,63.18
2022-08-24T20:48:57.285Z,62.88
2022-08-24T20:51:26.767Z,62.62
2022-08-24T20:53:54.174Z,62.26
2022-08-24T20:56:31.477Z,62.32
2022-08-24T20:59:01.258Z,63.08
2022-08-24T21:01:27.998Z,62.50
2022-08-24T21:03:54.716Z,62.90
2022-08-24T21:06:21.452Z,62.97
2022-08-24T21:08:50.786Z,63.38
2022-08-24T21:11:18.210Z,63.18
2022-08-24T21:13:44.877Z,62.93
2022-08-24T21:16:14.901Z,63.14
2022-08-24T21:18:46.868Z,62.99
2022-08-24T21:21:13.971Z,62.40
2022-08-24T21:23:40.740Z,62.57
2022-08-24T21:26:10.728Z,62.72
2022-08-24T21:28:41.033Z,62.45
2022-08-24T21:31:07.776Z,62.65
2022-08-24T21:33:53.554Z,62.09
2022-08-24T21:36:23.458Z,62.43
2022-08-24T21:38:52.023Z,62.25
2022-08-24T21:41:20.561Z,62.23
2022-08-24T21:43:47.259Z,62.46
2022-08-24T21:46:14.336Z,62.37
2022-08-24T21:48:41.209Z,62.73
2022-08-24T21:51:08.058Z,62.57
2022-08-24T21:53:34.883Z,63.17
2022-08-24T21:56:02.484Z,62.71
2022-08-24T21:58:29.604Z,62.93
2022-08-24T22:00:59.041Z,62.69
2022-08-24T22:03:26.433Z,62.65
2022-08-24T22:05:58.479Z,62.72
2022-08-24T22:08:26.074Z,62.99
2022-08-24T22:10:55.482Z,63.14
2022-08-24T22:13:22.263Z,63.01
2022-08-24T22:15:50.230Z,62.90
2022-08-24T22:18:16.963Z,63.96
2022-08-24T22:20:43.623Z,64.58
2022-08-24T22:23:10.331Z,63.76
2022-08-24T22:25:37.009Z,64.47
2022-08-24T22:28:03.941Z,64.34
2022-08-24T22:30:33.114Z,63.96
2022-08-24T22:33:00.280Z,63.54
2022-08-24T22:35:27.362Z,63.74
2022-08-24T22:37:54.034Z,64.56
2022-08-24T22:40:20.818Z,65.48
2022-08-24T22:42:47.524Z,65.27
2022-08-24T22:45:14.140Z,65.10
2022-08-24T22:47:40.795Z,64.41
2022-08-24T22:50:08.460Z,63.91
2022-08-24T22:52:35.111Z,64.76
2022-08-24T22:55:01.814Z,65.10
2022-08-24T22:57:30.389Z,65.20
2022-08-24T22:59:57.696Z,64.63
2022-08-24T23:02:24.532Z,63.95
2022-08-24T23:04:52.774Z,64.15
2022-08-24T23:07:20.438Z,64.50
2022-08-24T23:09:48.415Z,64.80
2022-08-24T23:12:19.300Z,64.55
2022-08-24T23:14:46.039Z,64.73
2022-08-24T23:17:12.800Z,65.12
2022-08-24T23:19:58.160Z,65.32
2022-08-24T23:22:25.582Z,65.08
2022-08-24T23:24:52.913Z,64.81
2022-08-24T23:27:20.150Z,64.75
2022-08-24T23:29:47.773Z,65.52
2022-08-24T23:32:18.102Z,65.47
2022-08-24T23:34:46.391Z,65.45
2022-08-24T23:37:13.536Z,65.71
2022-08-24T23:39:40.203Z,65.96
2022-08-24T23:42:07.153Z,66.28
2022-08-24T23:44:34.031Z,65.23
2022-08-24T23:47:01.204Z,64.71
2022-08-24T23:49:29.510Z,64.67
2022-08-24T23:51:56.365Z,64.55
2022-08-24T23:54:23.740Z,65.26
2022-08-24T23:56:51.518Z,64.55
2022-08-24T23:59:22.346Z,64.42
